Time;durP1;ratioP1;P1;durP2;ratioP2;P2;SDS_P1;SDS_P2;PMS_P1;PMS_P2;Temp;Humidity;BMP_temperature;BMP_pressure;BME280_temperature;BME280_humidity;BME280_pressure;Samples;Min_cycle;Max_cycle;Signal;HPM_P1;HPM_P2
2022/06/16 00:00:00;;;;;;;;;;;21.20;80.50;;;;;;4978623;28;20009;-96
2022/06/16 00:02:27;;;;;;;;;;;20.90;81.30;;;;;;4947081;29;19964;-96
2022/06/16 00:04:55;;;;;;;;;;;20.90;81.30;;;;;;4962857;29;19930;-96
2022/06/16 00:07:31;;;;;;;;;;;20.80;81.50;;;;;;4963239;29;19938;-96
2022/06/16 00:10:19;;;;;;;;;;;20.80;82.40;;;;;;4980897;28;19961;-96
2022/06/16 00:13:12;;;;;;;;;;;20.80;81.80;;;;;;4964428;29;19968;-96
2022/06/16 00:15:50;;;;;;;;;;;20.70;81.50;;;;;;4979537;28;19954;-96
2022/06/16 00:18:23;;;;;;;;;;;20.60;81.30;;;;;;4957754;29;19937;-96
2022/06/16 01:21:32;;;;;;;;;;;20.00;85.00;;;;;;4977215;28;20008;-96
2022/06/16 01:23:58;;;;;;;;;;;20.00;85.20;;;;;;4960870;29;19937;-96
2022/06/16 01:26:37;;;;;;;;;;;20.00;85.20;;;;;;4978466;29;19941;-96
2022/06/16 01:29:08;;;;;;;;;;;20.00;85.40;;;;;;4978587;28;19961;-96
2022/06/16 01:31:48;;;;;;;;;;;19.90;85.60;;;;;;4962253;29;19945;-96
2022/06/16 01:34:42;;;;;;;;;;;19.90;85.80;;;;;;4979688;29;19995;-96
2022/06/16 01:37:31;;;;;;;;;;;20.10;85.60;;;;;;4963281;29;19951;-96
2022/06/16 01:40:28;;;;;;;;;;;20.10;85.50;;;;;;4966622;29;19951;-96
2022/06/16 01:43:10;;;;;;;;;;;20.00;85.70;;;;;;4959400;28;19936;-96
2022/06/16 01:46:01;;;;;;;;;;;19.90;85.90;;;;;;4983197;29;19951;-96
2022/06/16 01:48:34;;;;;;;;;;;20.00;86.10;;;;;;4967035;29;19961;-96
2022/06/16 01:51:25;;;;;;;;;;;20.00;85.70;;;;;;4981916;28;19955;-96
2022/06/16 01:54:12;;;;;;;;;;;20.00;85.70;;;;;;4983475;28;19997;-96
2022/06/16 01:57:12;;;;;;;;;;;20.00;86.00;;;;;;4966629;29;19976;-96
2022/06/16 01:59:57;;;;;;;;;;;19.90;86.00;;;;;;4978199;28;19966;-96
2022/06/16 02:02:42;;;;;;;;;;;19.80;86.40;;;;;;4966739;28;20011;-96
2022/06/16 02:36:05;;;;;;;;;;;19.20;87.40;;;;;;5471249;23;19980;-96
2022/06/16 02:38:43;;;;;;;;;;;19.20;87.30;;;;;;4943909;29;19949;-96
2022/06/16 02:41:13;;;;;;;;;;;19.20;87.70;;;;;;4944470;29;19943;-96
2022/06/16 02:43:58;;;;;;;;;;;19.20;87.90;;;;;;4944121;29;19982;-96
2022/06/16 02:46:44;;;;;;;;;;;19.20;87.90;;;;;;4961803;29;19947;-96
2022/06/16 02:49:34;;;;;;;;;;;19.20;88.00;;;;;;4961382;28;19972;-96
2022/06/16 02:52:29;;;;;;;;;;;19.00;87.90;;;;;;4962496;28;19950;-96
2022/06/16 02:55:14;;;;;;;;;;;19.00;88.20;;;;;;4921305;29;19934;-96
2022/06/16 02:57:56;;;;;;;;;;;19.00;88.20;;;;;;4960804;28;19938;-96
2022/06/16 03:08:14;;;;;;;;;;;19.30;88.00;;;;;;5223985;23;19970;-96
2022/06/16 03:10:52;;;;;;;;;;;19.50;88.00;;;;;;4949548;28;19965;-96
2022/06/16 03:57:22;;;;;;;;;;;19.30;87.80;;;;;;5009174;23;19960;-96
2022/06/16 03:59:49;;;;;;;;;;;19.20;88.00;;;;;;4961157;29;19947;-95
2022/06/16 04:02:15;;;;;;;;;;;19.10;87.10;;;;;;4960016;29;19945;-96
2022/06/16 04:04:45;;;;;;;;;;;19.00;88.20;;;;;;4956342;29;19940;-96
2022/06/16 04:07:14;;;;;;;;;;;18.90;88.20;;;;;;4957912;29;19969;-96
2022/06/16 04:09:40;;;;;;;;;;;18.90;88.70;;;;;;4958875;29;19954;-96
2022/06/16 04:12:07;;;;;;;;;;;18.90;88.90;;;;;;4959527;29;19936;-96
2022/06/16 04:14:34;;;;;;;;;;;18.90;89.00;;;;;;4945340;29;19958;-96
2022/06/16 04:17:01;;;;;;;;;;;19.00;89.20;;;;;;4960953;29;19981;-96
2022/06/16 04:19:29;;;;;;;;;;;19.00;89.20;;;;;;4961431;29;19942;-96
2022/06/16 04:21:55;;;;;;;;;;;19.20;89.10;;;;;;4946020;29;19962;-96
2022/06/16 04:24:23;;;;;;;;;;;19.30;88.90;;;;;;4962021;29;20412;-96
2022/06/16 04:26:54;;;;;;;;;;;19.30;88.70;;;;;;4978544;28;19965;-96
2022/06/16 04:29:28;;;;;;;;;;;19.30;88.60;;;;;;4961994;29;19950;-96
2022/06/16 04:32:05;;;;;;;;;;;19.50;88.30;;;;;;4977655;29;19925;-97
2022/06/16 04:34:32;;;;;;;;;;;19.60;88.00;;;;;;4961008;29;19944;-96
2022/06/16 04:37:00;;;;;;;;;;;19.60;87.70;;;;;;4961962;29;19967;-96
2022/06/16 04:39:36;;;;;;;;;;;19.70;87.60;;;;;;4961853;29;20004;-96
2022/06/16 04:42:03;;;;;;;;;;;19.70;87.60;;;;;;4978805;28;19937;-96
2022/06/16 04:44:40;;;;;;;;;;;19.60;88.30;;;;;;4961730;29;19990;-96
2022/06/16 04:47:08;;;;;;;;;;;19.60;88.50;;;;;;4961270;29;19961;-96
2022/06/16 05:06:37;;;;;;;;;;;20.20;88.50;;;;;;5975219;23;19987;-96
2022/06/16 05:09:06;;;;;;;;;;;20.30;87.40;;;;;;4978875;28;19973;-96
2022/06/16 05:11:34;;;;;;;;;;;20.50;86.90;;;;;;4962340;29;20401;-96
2022/06/16 05:14:06;;;;;;;;;;;20.60;86.70;;;;;;4982714;29;19922;-96
2022/06/16 05:16:38;;;;;;;;;;;20.80;86.50;;;;;;4967494;28;19975;-96
2022/06/16 05:27:03;;;;;;;;;;;20.90;84.90;;;;;;5854900;23;19967;-96
2022/06/16 05:29:32;;;;;;;;;;;21.00;85.00;;;;;;5083577;23;20019;-96
2022/06/16 05:32:00;;;;;;;;;;;21.00;84.80;;;;;;4975920;28;19936;-96
2022/06/16 05:34:29;;;;;;;;;;;21.20;84.80;;;;;;4982012;29;19949;-96
2022/06/16 05:39:31;;;;;;;;;;;21.30;84.20;;;;;;5879304;23;19972;-96
2022/06/16 05:41:57;;;;;;;;;;;21.40;84.20;;;;;;4961714;29;20088;-96
2022/06/16 05:47:13;;;;;;;;;;;21.60;83.80;;;;;;5468135;23;19966;-96
2022/06/16 05:54:50;;;;;;;;;;;21.90;82.00;;;;;;5339878;23;20395;-96
2022/06/16 05:57:15;;;;;;;;;;;22.00;81.90;;;;;;4959193;29;19943;-96
2022/06/16 05:59:41;;;;;;;;;;;22.10;81.30;;;;;;4959142;29;20106;-96
2022/06/16 06:02:10;;;;;;;;;;;22.20;80.20;;;;;;4958937;29;19989;-96
2022/06/16 06:04:36;;;;;;;;;;;22.30;79.60;;;;;;4970422;29;19946;-96
2022/06/16 06:07:06;;;;;;;;;;;22.50;79.30;;;;;;4962389;29;19960;-96
2022/06/16 06:17:50;;;;;;;;;;;23.00;78.00;;;;;;4978328;29;19964;-96
2022/06/16 06:20:15;;;;;;;;;;;23.00;77.20;;;;;;4955514;29;20350;-95
2022/06/16 06:22:41;;;;;;;;;;;23.10;76.60;;;;;;4958369;28;19947;-96
2022/06/16 06:25:06;;;;;;;;;;;23.20;76.00;;;;;;4957713;28;19962;-96
2022/06/16 06:27:33;;;;;;;;;;;23.20;75.70;;;;;;4958382;29;19946;-96
2022/06/16 06:29:59;;;;;;;;;;;23.30;74.90;;;;;;4958295;29;19951;-96
2022/06/16 06:32:25;;;;;;;;;;;23.30;74.60;;;;;;4958443;29;20026;-95
2022/06/16 06:34:51;;;;;;;;;;;23.50;74.20;;;;;;4958241;29;19942;-96
2022/06/16 06:37:18;;;;;;;;;;;23.50;74.60;;;;;;4940943;29;20403;-95
2022/06/16 06:39:44;;;;;;;;;;;23.50;74.90;;;;;;4958279;29;20022;-94
2022/06/16 06:42:09;;;;;;;;;;;23.70;74.40;;;;;;4957618;29;19948;-95
2022/06/16 06:44:35;;;;;;;;;;;23.70;74.60;;;;;;4957855;29;19944;-94
2022/06/16 06:47:02;;;;;;;;;;;23.80;75.30;;;;;;4960251;29;19960;-96
2022/06/16 06:49:27;;;;;;;;;;;23.80;74.30;;;;;;4971077;29;19986;-96
2022/06/16 06:51:53;;;;;;;;;;;23.90;73.60;;;;;;4971037;29;19937;-95
2022/06/16 06:54:20;;;;;;;;;;;23.90;72.60;;;;;;4957884;28;19985;-94
2022/06/16 06:56:46;;;;;;;;;;;24.00;73.40;;;;;;4940230;29;19972;-96
2022/06/16 06:59:13;;;;;;;;;;;24.00;73.60;;;;;;4941607;29;20029;-95
2022/06/16 07:01:39;;;;;;;;;;;24.00;73.70;;;;;;4957689;29;20006;-95
2022/06/16 07:04:04;;;;;;;;;;;24.20;73.10;;;;;;4957242;29;19943;-96
2022/06/16 07:06:30;;;;;;;;;;;24.20;72.60;;;;;;4957539;29;19940;-95
2022/06/16 07:08:56;;;;;;;;;;;24.30;72.70;;;;;;4957446;29;20331;-95
2022/06/16 07:11:21;;;;;;;;;;;24.40;71.50;;;;;;4957466;29;19947;-96
2022/06/16 07:13:47;;;;;;;;;;;24.50;71.00;;;;;;4957142;29;19950;-95
2022/06/16 07:16:13;;;;;;;;;;;24.60;69.40;;;;;;4956882;29;20029;-94
2022/06/16 07:18:38;;;;;;;;;;;24.60;68.80;;;;;;4957270;29;19941;-96
2022/06/16 07:21:04;;;;;;;;;;;24.70;69.00;;;;;;4956648;29;20024;-95
2022/06/16 07:23:30;;;;;;;;;;;24.70;70.80;;;;;;4956747;29;20313;-95
2022/06/16 07:25:56;;;;;;;;;;;24.80;69.20;;;;;;4956551;28;19967;-95
2022/06/16 07:28:21;;;;;;;;;;;24.80;68.60;;;;;;4956759;29;20047;-95
2022/06/16 07:30:47;;;;;;;;;;;24.90;67.40;;;;;;4957117;29;20377;-95
2022/06/16 07:33:13;;;;;;;;;;;25.00;68.60;;;;;;4957197;29;20019;-95
2022/06/16 07:35:41;;;;;;;;;;;25.00;68.50;;;;;;4956151;28;20416;-95
2022/06/16 07:38:07;;;;;;;;;;;25.10;67.10;;;;;;4939848;29;19956;-95
2022/06/16 07:40:33;;;;;;;;;;;25.10;66.90;;;;;;4940246;29;20002;-95
2022/06/16 07:42:59;;;;;;;;;;;25.20;66.90;;;;;;4956978;29;19946;-96
2022/06/16 07:45:24;;;;;;;;;;;25.20;66.90;;;;;;4957010;29;20001;-96
2022/06/16 07:47:50;;;;;;;;;;;25.30;66.50;;;;;;4956901;29;19939;-95
2022/06/16 07:50:16;;;;;;;;;;;25.50;66.40;;;;;;4956901;29;19943;-94
2022/06/16 07:52:47;;;;;;;;;;;25.50;67.10;;;;;;4956637;29;19971;-95
2022/06/16 07:55:13;;;;;;;;;;;25.60;65.30;;;;;;4956111;28;20297;-95
2022/06/16 07:57:42;;;;;;;;;;;25.70;65.40;;;;;;4956743;29;19944;-95
2022/06/16 08:00:11;;;;;;;;;;;25.80;66.40;;;;;;4955957;29;19966;-95
2022/06/16 08:02:36;;;;;;;;;;;25.90;65.80;;;;;;4956660;29;19974;-95
2022/06/16 08:05:02;;;;;;;;;;;26.00;64.90;;;;;;4956909;29;19997;-96
2022/06/16 08:07:28;;;;;;;;;;;26.10;64.50;;;;;;4956534;29;19938;-95
2022/06/16 08:09:53;;;;;;;;;;;26.10;60.90;;;;;;4956765;29;19946;-95
2022/06/16 08:12:20;;;;;;;;;;;26.20;60.30;;;;;;4956389;29;19944;-95
2022/06/16 08:14:46;;;;;;;;;;;26.30;61.70;;;;;;4939056;29;20246;-94
2022/06/16 08:17:24;;;;;;;;;;;26.40;61.30;;;;;;4939195;29;19964;-94
2022/06/16 08:19:50;;;;;;;;;;;26.60;61.20;;;;;;4955639;29;20406;-96
2022/06/16 08:22:16;;;;;;;;;;;26.70;62.30;;;;;;4956883;29;19937;-96
2022/06/16 08:24:42;;;;;;;;;;;26.70;62.70;;;;;;4956264;29;19946;-96
2022/06/16 08:27:08;;;;;;;;;;;26.80;63.00;;;;;;4955892;28;19983;-96
2022/06/16 08:29:34;;;;;;;;;;;26.80;62.40;;;;;;4956366;29;19941;-95
2022/06/16 08:32:00;;;;;;;;;;;26.80;63.20;;;;;;4956167;29;20050;-95
2022/06/16 08:34:25;;;;;;;;;;;27.00;61.80;;;;;;4955561;29;19982;-95
2022/06/16 08:36:51;;;;;;;;;;;27.10;57.00;;;;;;4955817;29;19968;-94
2022/06/16 08:39:17;;;;;;;;;;;27.20;56.90;;;;;;4955605;29;20361;-95
2022/06/16 08:41:43;;;;;;;;;;;27.20;59.70;;;;;;4955996;29;19954;-95
2022/06/16 08:44:11;;;;;;;;;;;27.20;60.50;;;;;;4956017;29;20394;-96
2022/06/16 08:46:42;;;;;;;;;;;27.00;58.00;;;;;;4955305;28;19939;-96
2022/06/16 08:49:18;;;;;;;;;;;26.80;59.30;;;;;;4955805;29;19939;-96
2022/06/16 08:52:02;;;;;;;;;;;26.70;57.70;;;;;;4938776;29;19935;-96
2022/06/16 08:54:34;;;;;;;;;;;26.70;60.90;;;;;;4955137;28;19986;-96
2022/06/16 08:57:04;;;;;;;;;;;26.90;60.50;;;;;;4955030;29;21674;-96
2022/06/16 08:59:31;;;;;;;;;;;27.00;59.80;;;;;;4955714;29;20304;-96
2022/06/16 09:02:06;;;;;;;;;;;27.10;57.90;;;;;;4956102;29;20392;-96
2022/06/16 09:04:43;;;;;;;;;;;27.20;60.20;;;;;;4955780;29;20013;-96
2022/06/16 09:07:27;;;;;;;;;;;27.20;59.20;;;;;;4955978;29;20043;-96
2022/06/16 09:10:14;;;;;;;;;;;27.10;57.40;;;;;;4938028;29;19944;-95
2022/06/16 09:12:40;;;;;;;;;;;27.10;55.50;;;;;;4955652;29;19940;-95
2022/06/16 09:15:10;;;;;;;;;;;27.10;56.30;;;;;;4955473;29;19983;-96
2022/06/16 09:17:46;;;;;;;;;;;27.20;54.90;;;;;;4955730;29;20379;-95
2022/06/16 09:20:20;;;;;;;;;;;27.20;54.80;;;;;;4955246;29;19945;-95
2022/06/16 09:22:59;;;;;;;;;;;27.30;56.30;;;;;;4955511;29;19944;-96
2022/06/16 09:25:31;;;;;;;;;;;27.40;58.90;;;;;;4955273;29;19951;-94
2022/06/16 09:28:28;;;;;;;;;;;27.40;54.10;;;;;;4955673;29;19966;-94
2022/06/16 09:30:54;;;;;;;;;;;27.30;55.40;;;;;;4940057;29;19944;-94
2022/06/16 09:33:23;;;;;;;;;;;27.30;54.70;;;;;;4955098;29;19939;-95
2022/06/16 09:35:51;;;;;;;;;;;27.30;56.70;;;;;;4955515;29;19987;-95
2022/06/16 09:38:20;;;;;;;;;;;27.40;53.20;;;;;;4955434;29;20397;-95
2022/06/16 09:40:48;;;;;;;;;;;27.50;55.80;;;;;;4955384;29;19992;-95
2022/06/16 09:43:23;;;;;;;;;;;27.60;52.10;;;;;;4938167;29;20405;-95
2022/06/16 09:45:54;;;;;;;;;;;27.60;52.60;;;;;;4927440;29;20402;-95
2022/06/16 09:48:22;;;;;;;;;;;27.70;50.90;;;;;;4936146;29;20014;-95
2022/06/16 09:51:11;;;;;;;;;;;27.80;52.60;;;;;;4947420;29;19948;-95
2022/06/16 09:53:37;;;;;;;;;;;27.80;51.80;;;;;;4910427;28;19966;-95
2022/06/16 09:56:09;;;;;;;;;;;27.90;52.50;;;;;;4955184;29;20438;-94
2022/06/16 09:58:38;;;;;;;;;;;27.90;52.70;;;;;;4956001;28;19952;-95
2022/06/16 10:01:06;;;;;;;;;;;27.90;51.10;;;;;;4958780;29;19945;-96
2022/06/16 10:03:38;;;;;;;;;;;28.00;51.10;;;;;;4958765;29;19942;-95
2022/06/16 10:06:18;;;;;;;;;;;28.10;51.30;;;;;;4958711;29;19978;-96
2022/06/16 10:08:58;;;;;;;;;;;28.10;54.10;;;;;;4958642;29;19945;-95
2022/06/16 10:11:32;;;;;;;;;;;28.20;52.30;;;;;;4958710;29;19955;-94
2022/06/16 10:14:16;;;;;;;;;;;28.30;54.00;;;;;;4958806;29;19960;-95
2022/06/16 10:16:51;;;;;;;;;;;28.40;50.10;;;;;;4958698;29;19968;-95
2022/06/16 10:19:17;;;;;;;;;;;28.60;53.40;;;;;;4958803;29;19940;-95
2022/06/16 10:21:42;;;;;;;;;;;28.70;51.00;;;;;;4958523;29;19942;-95
2022/06/16 10:24:08;;;;;;;;;;;28.80;51.10;;;;;;4958677;29;19948;-95
2022/06/16 10:26:35;;;;;;;;;;;28.80;49.20;;;;;;4958388;28;19954;-96
2022/06/16 10:29:03;;;;;;;;;;;29.20;49.90;;;;;;4958671;29;19938;-95
2022/06/16 10:31:37;;;;;;;;;;;29.40;48.20;;;;;;4958344;29;19946;-95
2022/06/16 10:34:04;;;;;;;;;;;29.50;51.00;;;;;;4958556;29;19945;-96
2022/06/16 10:36:30;;;;;;;;;;;29.40;47.80;;;;;;4958342;29;20424;-95
2022/06/16 10:39:14;;;;;;;;;;;29.50;48.40;;;;;;4958769;29;19948;-96
2022/06/16 10:41:41;;;;;;;;;;;29.60;48.50;;;;;;4958479;29;19986;-96
2022/06/16 10:44:11;;;;;;;;;;;29.80;48.70;;;;;;4958362;29;20039;-95
2022/06/16 10:46:42;;;;;;;;;;;29.90;47.20;;;;;;4958100;29;20461;-95
2022/06/16 10:49:14;;;;;;;;;;;29.90;47.40;;;;;;4958097;29;19988;-95
2022/06/16 10:51:47;;;;;;;;;;;30.00;46.80;;;;;;4958214;29;19971;-95
2022/06/16 10:54:19;;;;;;;;;;;30.20;48.80;;;;;;4958038;28;20465;-94
2022/06/16 10:56:44;;;;;;;;;;;30.40;48.90;;;;;;4958117;29;19970;-95
2022/06/16 10:59:19;;;;;;;;;;;30.50;45.70;;;;;;4958186;29;20377;-94
2022/06/16 11:01:47;;;;;;;;;;;30.60;47.00;;;;;;4957847;29;19960;-94
2022/06/16 11:04:23;;;;;;;;;;;30.70;45.20;;;;;;4957822;29;20410;-95
2022/06/16 11:06:53;;;;;;;;;;;30.70;45.40;;;;;;4958296;29;19938;-95
2022/06/16 11:09:20;;;;;;;;;;;30.60;46.50;;;;;;4957499;28;20040;-95
2022/06/16 11:11:52;;;;;;;;;;;30.60;47.30;;;;;;4958168;29;20267;-95
2022/06/16 11:14:44;;;;;;;;;;;30.50;47.60;;;;;;4957591;29;19986;-94
2022/06/16 11:17:15;;;;;;;;;;;30.30;47.40;;;;;;4920975;29;19979;-94
2022/06/16 11:19:43;;;;;;;;;;;30.40;48.40;;;;;;4957375;29;20032;-96
2022/06/16 11:22:35;;;;;;;;;;;30.50;48.20;;;;;;4957890;29;20034;-95
2022/06/16 11:25:05;;;;;;;;;;;30.50;46.40;;;;;;4952838;28;19952;-94
2022/06/16 11:27:41;;;;;;;;;;;30.60;47.00;;;;;;4957404;29;19942;-95
2022/06/16 11:30:25;;;;;;;;;;;30.90;46.90;;;;;;4957145;29;19952;-95
2022/06/16 11:32:50;;;;;;;;;;;31.20;45.20;;;;;;4957153;29;19952;-95
2022/06/16 11:35:16;;;;;;;;;;;31.50;44.30;;;;;;4957008;29;20010;-94
2022/06/16 11:37:47;;;;;;;;;;;31.60;43.30;;;;;;4939847;29;19949;-96
2022/06/16 11:40:24;;;;;;;;;;;31.50;43.60;;;;;;4957362;29;19951;-96
2022/06/16 11:42:52;;;;;;;;;;;31.60;44.50;;;;;;4957206;29;19939;-96
2022/06/16 11:45:27;;;;;;;;;;;31.80;43.00;;;;;;4957177;29;19945;-95
2022/06/16 11:47:53;;;;;;;;;;;31.90;43.30;;;;;;4939930;29;19960;-94
2022/06/16 11:50:37;;;;;;;;;;;32.10;44.70;;;;;;4956864;29;20329;-94
2022/06/16 11:53:21;;;;;;;;;;;32.20;41.60;;;;;;4956638;29;19949;-95
2022/06/16 11:55:50;;;;;;;;;;;32.50;42.70;;;;;;4956366;28;20049;-94
2022/06/16 11:58:15;;;;;;;;;;;32.70;42.60;;;;;;4956648;29;20024;-95
2022/06/16 12:00:50;;;;;;;;;;;33.10;43.40;;;;;;4956693;29;20360;-94
2022/06/16 12:03:29;;;;;;;;;;;33.50;41.90;;;;;;4956255;29;19949;-96
2022/06/16 12:06:16;;;;;;;;;;;33.70;42.00;;;;;;4956385;29;20027;-95
2022/06/16 12:08:51;;;;;;;;;;;33.70;41.10;;;;;;4956281;29;19943;-95
2022/06/16 12:11:25;;;;;;;;;;;34.00;40.60;;;;;;4938689;29;20050;-94
2022/06/16 12:13:55;;;;;;;;;;;33.70;42.30;;;;;;4956029;29;20043;-94
2022/06/16 12:16:25;;;;;;;;;;;33.00;42.60;;;;;;4956068;29;19964;-95
2022/06/16 12:19:14;;;;;;;;;;;32.60;43.60;;;;;;4956096;29;19988;-94
2022/06/16 12:21:50;;;;;;;;;;;32.50;44.00;;;;;;4942010;28;20034;-95
2022/06/16 12:24:25;;;;;;;;;;;32.90;44.00;;;;;;4956163;29;20423;-95
2022/06/16 12:26:51;;;;;;;;;;;33.40;43.30;;;;;;4955589;28;20305;-95
2022/06/16 12:29:20;;;;;;;;;;;34.20;41.00;;;;;;4956355;29;20351;-95
2022/06/16 12:31:57;;;;;;;;;;;34.70;40.10;;;;;;4956366;29;19945;-95
2022/06/16 12:34:23;;;;;;;;;;;35.10;37.20;;;;;;4956108;29;19965;-94
2022/06/16 12:36:53;;;;;;;;;;;35.40;38.00;;;;;;4955857;29;20326;-94
2022/06/16 12:39:35;;;;;;;;;;;35.60;36.40;;;;;;4955478;29;19940;-94
2022/06/16 12:42:04;;;;;;;;;;;36.00;36.50;;;;;;4936765;29;20036;-95
2022/06/16 12:44:32;;;;;;;;;;;35.80;35.90;;;;;;4936642;29;19949;-95
2022/06/16 12:47:01;;;;;;;;;;;35.50;36.70;;;;;;4949704;29;19950;-95
2022/06/16 12:49:29;;;;;;;;;;;35.80;37.00;;;;;;4955943;29;19960;-95
2022/06/16 12:52:14;;;;;;;;;;;36.20;37.80;;;;;;4955815;29;19988;-94
2022/06/16 12:54:42;;;;;;;;;;;36.70;35.00;;;;;;4955542;28;19980;-95
2022/06/16 12:57:11;;;;;;;;;;;36.70;35.20;;;;;;4955464;29;19970;-94
2022/06/16 12:59:50;;;;;;;;;;;36.70;35.00;;;;;;4955726;29;20033;-94
2022/06/16 13:02:18;;;;;;;;;;;36.80;34.60;;;;;;4955529;29;19940;-94
2022/06/16 13:04:45;;;;;;;;;;;36.90;34.60;;;;;;4955532;29;20045;-94
2022/06/16 13:07:14;;;;;;;;;;;36.90;33.70;;;;;;4939978;29;19948;-94
2022/06/16 13:09:41;;;;;;;;;;;36.20;34.50;;;;;;4936363;29;19943;-94
2022/06/16 13:12:12;;;;;;;;;;;35.40;36.30;;;;;;4936311;29;19945;-94
2022/06/16 13:14:41;;;;;;;;;;;35.20;36.40;;;;;;4936392;29;19986;-94
2022/06/16 13:17:07;;;;;;;;;;;35.10;37.70;;;;;;4936273;29;19973;-94
2022/06/16 13:19:35;;;;;;;;;;;35.50;37.10;;;;;;4936407;29;19948;-94
2022/06/16 13:22:04;;;;;;;;;;;35.70;38.80;;;;;;4935896;29;19939;-95
2022/06/16 13:24:39;;;;;;;;;;;36.20;37.10;;;;;;4936498;29;19940;-95
2022/06/16 13:27:06;;;;;;;;;;;37.00;35.80;;;;;;4936276;29;19960;-95
2022/06/16 13:29:40;;;;;;;;;;;37.00;33.60;;;;;;4936206;29;19942;-95
2022/06/16 13:32:19;;;;;;;;;;;36.50;35.60;;;;;;4936445;29;19947;-95
2022/06/16 13:34:52;;;;;;;;;;;35.80;37.40;;;;;;4945817;29;19959;-95
2022/06/16 13:37:35;;;;;;;;;;;35.20;39.60;;;;;;4959229;29;20047;-95
2022/06/16 13:40:06;;;;;;;;;;;34.70;39.80;;;;;;4958137;29;19944;-95
2022/06/16 13:42:46;;;;;;;;;;;34.60;40.60;;;;;;4957187;29;19944;-95
2022/06/16 13:45:11;;;;;;;;;;;34.10;41.70;;;;;;4958827;29;19938;-95
2022/06/16 13:47:41;;;;;;;;;;;33.70;43.40;;;;;;4959067;29;19940;-95
2022/06/16 13:50:10;;;;;;;;;;;33.40;43.80;;;;;;4958281;29;19942;-95
2022/06/16 13:52:41;;;;;;;;;;;33.20;43.70;;;;;;4959090;29;19938;-96
2022/06/16 13:55:28;;;;;;;;;;;33.20;44.30;;;;;;5003911;23;20018;-95
2022/06/16 13:58:16;;;;;;;;;;;33.20;42.30;;;;;;5015963;28;19958;-94
2022/06/16 14:00:42;;;;;;;;;;;33.20;42.90;;;;;;5008842;28;19939;-95
2022/06/16 14:03:19;;;;;;;;;;;33.50;44.30;;;;;;5015301;28;19959;-95
2022/06/16 14:05:55;;;;;;;;;;;33.90;43.30;;;;;;5017272;28;19949;-95
2022/06/16 14:08:22;;;;;;;;;;;34.40;41.30;;;;;;5016891;28;19942;-95
2022/06/16 14:10:49;;;;;;;;;;;35.10;40.10;;;;;;5016966;28;19943;-95
2022/06/16 14:13:14;;;;;;;;;;;35.70;38.90;;;;;;5016975;28;19950;-95
2022/06/16 14:16:12;;;;;;;;;;;35.90;39.20;;;;;;5004655;28;19963;-95
2022/06/16 14:18:48;;;;;;;;;;;35.90;39.20;;;;;;4964096;28;19942;-95
2022/06/16 14:21:14;;;;;;;;;;;35.80;39.20;;;;;;4997074;28;19951;-95
2022/06/16 14:23:43;;;;;;;;;;;35.70;38.90;;;;;;4995936;28;20380;-95
2022/06/16 14:26:12;;;;;;;;;;;36.20;39.50;;;;;;4985192;28;20496;-95
2022/06/16 14:28:40;;;;;;;;;;;36.20;39.10;;;;;;4977542;28;20337;-94
2022/06/16 14:31:10;;;;;;;;;;;36.70;36.10;;;;;;4976053;28;20436;-95
2022/06/16 14:33:40;;;;;;;;;;;37.00;36.00;;;;;;4977600;28;19944;-95
2022/06/16 14:36:21;;;;;;;;;;;37.50;35.50;;;;;;4989375;28;19966;-95
2022/06/16 14:39:02;;;;;;;;;;;37.60;35.70;;;;;;4995333;28;19951;-95
2022/06/16 14:41:48;;;;;;;;;;;37.90;35.20;;;;;;4981406;28;20025;-95
2022/06/16 14:44:20;;;;;;;;;;;37.60;37.20;;;;;;4978608;28;19941;-95
2022/06/16 14:46:48;;;;;;;;;;;37.40;37.30;;;;;;4977274;28;19940;-95
2022/06/16 14:49:17;;;;;;;;;;;37.40;35.80;;;;;;4976507;28;19937;-95
2022/06/16 14:51:44;;;;;;;;;;;37.70;34.90;;;;;;4977224;28;19944;-95
2022/06/16 14:54:14;;;;;;;;;;;37.60;34.80;;;;;;4969594;28;20440;-94
2022/06/16 14:56:50;;;;;;;;;;;36.80;35.60;;;;;;4957710;29;20010;-95
2022/06/16 14:59:17;;;;;;;;;;;36.70;38.40;;;;;;4957565;29;19969;-95
2022/06/16 15:01:43;;;;;;;;;;;36.10;37.20;;;;;;4957542;29;19982;-95
2022/06/16 15:04:11;;;;;;;;;;;35.70;38.10;;;;;;4940237;29;19942;-94
2022/06/16 15:06:41;;;;;;;;;;;35.60;39.60;;;;;;4969439;28;19944;-95
2022/06/16 15:09:08;;;;;;;;;;;35.90;39.00;;;;;;4957238;29;19998;-95
2022/06/16 15:11:38;;;;;;;;;;;36.00;38.50;;;;;;4957450;29;19945;-95
2022/06/16 15:14:04;;;;;;;;;;;36.00;39.20;;;;;;4957221;29;19944;-95
2022/06/16 15:19:17;;;;;;;;;;;36.30;36.70;;;;;;4957264;29;19969;-95
2022/06/16 15:21:43;;;;;;;;;;;36.80;38.20;;;;;;4957314;29;19942;-95
2022/06/16 15:24:09;;;;;;;;;;;37.30;35.70;;;;;;4957046;29;20020;-95
2022/06/16 15:26:35;;;;;;;;;;;37.40;36.90;;;;;;4969086;28;20066;-95
2022/06/16 15:29:04;;;;;;;;;;;37.60;35.60;;;;;;4976486;28;20033;-95
2022/06/16 15:31:34;;;;;;;;;;;38.30;34.60;;;;;;4976433;28;19945;-95
2022/06/16 15:36:49;;;;;;;;;;;39.20;35.30;;;;;;4972367;28;19969;-94
2022/06/16 15:39:17;;;;;;;;;;;38.60;36.30;;;;;;4956638;29;20338;-95
2022/06/16 15:41:44;;;;;;;;;;;38.10;38.60;;;;;;4959705;28;20440;-95
2022/06/16 15:44:23;;;;;;;;;;;37.30;39.80;;;;;;4961181;28;19982;-94
2022/06/16 15:46:50;;;;;;;;;;;36.80;40.20;;;;;;4956857;29;20460;-95
2022/06/16 15:49:20;;;;;;;;;;;36.20;41.40;;;;;;4956617;29;19945;-95
2022/06/16 15:51:46;;;;;;;;;;;36.10;41.90;;;;;;4956807;29;19946;-95
2022/06/16 15:54:12;;;;;;;;;;;35.70;41.70;;;;;;4970914;28;19980;-95
2022/06/16 15:56:39;;;;;;;;;;;35.60;42.50;;;;;;4974965;28;20417;-94
2022/06/16 15:59:07;;;;;;;;;;;35.30;42.80;;;;;;4976177;28;19972;-95
2022/06/16 16:01:33;;;;;;;;;;;35.10;43.80;;;;;;4958497;28;20090;-95
2022/06/16 16:04:00;;;;;;;;;;;34.90;45.20;;;;;;4975472;28;19961;-95
2022/06/16 16:06:26;;;;;;;;;;;34.70;44.70;;;;;;4975832;28;19946;-94
2022/06/16 16:08:51;;;;;;;;;;;34.70;45.30;;;;;;4975473;28;19964;-94
2022/06/16 16:11:21;;;;;;;;;;;34.50;43.30;;;;;;4961227;28;19959;-95
2022/06/16 16:13:59;;;;;;;;;;;33.90;45.30;;;;;;4956612;29;19946;-94
2022/06/16 16:16:25;;;;;;;;;;;33.90;46.20;;;;;;4956414;29;19961;-94
2022/06/16 16:19:08;;;;;;;;;;;33.70;45.50;;;;;;4956455;29;19937;-94
2022/06/16 16:21:40;;;;;;;;;;;33.70;46.10;;;;;;4956352;29;19940;-95
2022/06/16 16:24:07;;;;;;;;;;;33.50;46.00;;;;;;4956265;29;19945;-94
2022/06/16 16:26:32;;;;;;;;;;;33.40;46.50;;;;;;4956189;29;19965;-95
2022/06/16 16:29:00;;;;;;;;;;;33.30;46.80;;;;;;4956317;29;19941;-95
2022/06/16 16:31:27;;;;;;;;;;;33.30;46.30;;;;;;4955647;29;19954;-94
2022/06/16 16:33:57;;;;;;;;;;;33.20;47.30;;;;;;4956389;29;20313;-94
2022/06/16 16:36:28;;;;;;;;;;;33.20;46.40;;;;;;4955887;29;19964;-94
2022/06/16 16:39:09;;;;;;;;;;;33.10;47.00;;;;;;4955915;29;20034;-94
2022/06/16 16:44:24;;;;;;;;;;;32.60;45.10;;;;;;4955921;29;20012;-94
2022/06/16 16:46:59;;;;;;;;;;;32.30;46.30;;;;;;4968084;28;19948;-94
2022/06/16 16:49:43;;;;;;;;;;;32.20;46.90;;;;;;4955811;29;20325;-94
2022/06/16 16:52:12;;;;;;;;;;;32.20;48.00;;;;;;4955738;29;19946;-94
2022/06/16 16:54:38;;;;;;;;;;;32.20;47.00;;;;;;4955558;28;20078;-95
2022/06/16 16:57:03;;;;;;;;;;;32.50;46.90;;;;;;4955678;29;20053;-94
2022/06/16 16:59:29;;;;;;;;;;;32.60;46.10;;;;;;4957700;29;20361;-96
2022/06/16 17:01:55;;;;;;;;;;;32.50;45.40;;;;;;4956968;29;19950;-96
2022/06/16 17:04:26;;;;;;;;;;;32.50;45.90;;;;;;4957246;29;19958;-96
2022/06/16 17:06:53;;;;;;;;;;;32.40;45.90;;;;;;4957456;28;20439;-96
2022/06/16 17:09:19;;;;;;;;;;;32.40;46.60;;;;;;4957085;29;19946;-96
2022/06/16 17:11:52;;;;;;;;;;;32.50;46.50;;;;;;4939239;29;19963;-96
2022/06/16 17:14:20;;;;;;;;;;;32.30;45.80;;;;;;4956861;29;19947;-96
2022/06/16 17:16:46;;;;;;;;;;;32.20;46.00;;;;;;4956815;29;19970;-96
2022/06/16 17:19:13;;;;;;;;;;;32.00;46.60;;;;;;4956572;29;19944;-96
2022/06/16 17:21:39;;;;;;;;;;;32.10;46.80;;;;;;4956013;29;19999;-96
2022/06/16 17:24:04;;;;;;;;;;;31.90;46.50;;;;;;4938741;29;19949;-96
2022/06/16 17:26:30;;;;;;;;;;;31.80;46.70;;;;;;4956605;29;20047;-96
2022/06/16 17:28:55;;;;;;;;;;;31.70;47.40;;;;;;4956317;29;20399;-96
2022/06/16 17:31:22;;;;;;;;;;;31.40;48.40;;;;;;4939401;29;19946;-96
2022/06/16 17:33:47;;;;;;;;;;;31.30;48.40;;;;;;4955969;29;19944;-96
2022/06/16 17:36:14;;;;;;;;;;;31.20;48.70;;;;;;4955530;29;20063;-96
2022/06/16 17:38:41;;;;;;;;;;;31.20;48.50;;;;;;4955811;29;19964;-96
2022/06/16 17:41:15;;;;;;;;;;;31.00;48.40;;;;;;4955828;29;19967;-96
2022/06/16 17:43:40;;;;;;;;;;;30.70;48.70;;;;;;4938400;29;19975;-96
2022/06/16 17:46:09;;;;;;;;;;;30.40;49.20;;;;;;4938301;29;19948;-96
2022/06/16 17:48:37;;;;;;;;;;;30.20;49.20;;;;;;4956394;29;19955;-96
2022/06/16 17:51:02;;;;;;;;;;;30.00;50.30;;;;;;4939431;29;19949;-96
2022/06/16 18:01:55;;;;;;;;;;;29.70;50.70;;;;;;4956362;29;19996;-96